Estación Meteorológica Peña el Pijo (Robertgarden) [ 08/15/18 18:30:50 CEST ]

Fecha Hora Presion(HPa) Temp (°C) Humedad % Rocio (°C) Viento ( m/s) Direccion Lluvia 1Hora(mm) Lluvia 24H(mm) LLuvia Total(mm)
2018-Apr-18 01:01:41 1015.400 8.2 73 3.6         203.05
2018-Apr-18 02:01:44 1015.400 7.4 75 3.2         203.05
2018-Apr-18 03:01:43 1014.900 6.3 77 2.5         203.05
2018-Apr-18 04:05:09 1014.700 5.5 79 2.1         203.05
2018-Apr-18 05:01:44 1014.300 4.2 81 1.2         203.05
2018-Apr-18 06:01:40 1014.400 3.5 82 0.7         203.05
2018-Apr-18 07:01:52 1014.500 3.3 83 0.7         203.05
2018-Apr-18 08:01:36 1015.000 2.9 84 0.4         203.05
2018-Apr-18 09:01:39 1014.900 7.9 87 5.9         203.05
2018-Apr-18 10:01:37 1014.700 13.9 71 8.7         203.05
2018-Apr-18 11:01:55 1014.400 18.8 43 5.9         203.05
2018-Apr-18 12:01:38 1014.700 21.2 34 4.6 1.3 S     203.05
2018-Apr-18 13:01:49 1014.300 20.8 32 3.4         203.05
2018-Apr-18 14:01:42 1014.100 21.3 34 4.7         203.05
2018-Apr-18 15:01:51 1014.100 22.1 33 5.0 2.9 S     203.05
2018-Apr-18 16:01:58 1013.700 22.9 33 5.7         203.05
2018-Apr-18 17:01:56 1013.300 22.6 33 5.4         203.05
2018-Apr-18 18:01:47 1013.400 21.5 36 5.7         203.05
2018-Apr-18 19:01:47 1013.400 20.4 38 5.5         203.05
2018-Apr-18 20:01:48 1013.700 17.2 40 3.5         203.05
2018-Apr-18 21:01:28 1014.100 14.9 41 1.7         203.05
2018-Apr-18 22:01:44 1014.700 12.6 42 -0.0         203.05
2018-Apr-18 23:01:38 1015.000 11.3 51 1.5         203.05

Temperatura Máxima:22°    Temperatura Mínima:
Presión Máxima:1015.400 Hpa    Presión Mínima:1013.300 Hpa


Volver